Time;durP1;ratioP1;P1;durP2;ratioP2;P2;SDS_P1;SDS_P2;PMS_P1;PMS_P2;Temp;Humidity;BMP_temperature;BMP_pressure;BME280_temperature;BME280_humidity;BME280_pressure;Samples;Min_cycle;Max_cycle;Signal;HPM_P1;HPM_P2
2022/01/30 00:00:53;;;;;;;0.10;0.10;;;5.70;99.90;;;;;;5081465;28;20032;-83
2022/01/30 00:03:20;;;;;;;0.10;0.10;;;5.80;99.90;;;;;;5142526;28;20119;-88
2022/01/30 00:05:47;;;;;;;0.10;0.10;;;5.80;99.90;;;;;;5117286;28;20042;-89
2022/01/30 00:08:14;;;;;;;0.10;0.10;;;5.70;99.90;;;;;;5101030;28;20032;-83
2022/01/30 00:10:41;;;;;;;0.10;0.10;;;5.70;99.90;;;;;;5095433;28;20488;-83
2022/01/30 00:13:14;;;;;;;0.10;0.10;;;5.70;99.90;;;;;;5112496;28;20079;-83
2022/01/30 00:18:43;;;;;;;0.10;0.10;;;5.70;99.90;;;;;;5129779;28;20476;-84
2022/01/30 00:21:14;;;;;;;0.10;0.10;;;5.70;99.90;;;;;;5113835;28;20044;-88
2022/01/30 00:23:48;;;;;;;0.10;0.10;;;5.70;99.90;;;;;;5096600;28;20481;-83
2022/01/30 00:26:17;;;;;;;0.10;0.10;;;5.70;99.90;;;;;;5097350;28;20051;-84
2022/01/30 00:28:44;;;;;;;0.10;0.10;;;5.70;99.90;;;;;;5095773;28;20032;-83
2022/01/30 00:31:13;;;;;;;0.10;0.10;;;5.70;99.90;;;;;;5078584;28;20039;-83
2022/01/30 00:33:40;;;;;;;0.20;0.20;;;5.70;99.90;;;;;;5111815;28;20097;-84
2022/01/30 00:36:07;;;;;;;0.10;0.10;;;5.70;99.90;;;;;;5094504;28;20036;-83
2022/01/30 00:38:35;;;;;;;0.10;0.10;;;5.60;99.90;;;;;;5078601;28;20075;-89
2022/01/30 00:41:02;;;;;;;0.20;0.20;;;5.60;99.90;;;;;;5112176;28;20048;-83
2022/01/30 00:43:29;;;;;;;0.15;0.15;;;5.60;99.90;;;;;;5111446;28;20048;-83
2022/01/30 00:45:56;;;;;;;0.10;0.10;;;5.60;99.90;;;;;;5078020;28;20382;-83
2022/01/30 00:48:24;;;;;;;0.10;0.10;;;5.50;99.90;;;;;;5095534;28;20060;-88
2022/01/30 00:50:51;;;;;;;0.10;0.10;;;5.50;99.90;;;;;;5095013;28;20489;-88
2022/01/30 00:53:18;;;;;;;0.10;0.10;;;5.50;99.90;;;;;;5094903;28;20044;-83
2022/01/30 00:55:45;;;;;;;0.10;0.10;;;5.50;99.90;;;;;;5110850;28;20036;-84
2022/01/30 00:58:13;;;;;;;0.10;0.10;;;5.60;99.90;;;;;;5094048;28;20450;-88
2022/01/30 01:00:40;;;;;;;0.10;0.10;;;5.60;99.90;;;;;;5110478;28;20040;-88
2022/01/30 01:03:06;;;;;;;0.10;0.10;;;5.60;99.90;;;;;;5111024;28;20108;-83
2022/01/30 01:05:35;;;;;;;0.20;0.20;;;5.60;99.90;;;;;;5094876;28;20518;-88
2022/01/30 01:08:12;;;;;;;0.10;0.10;;;5.50;99.90;;;;;;5094619;28;20099;-88
2022/01/30 01:10:48;;;;;;;0.10;0.10;;;5.50;99.90;;;;;;5094599;28;20503;-86
2022/01/30 01:24:02;;;;;;;0.10;0.10;;;5.40;99.90;;;;;;5097631;28;20044;-83
2022/01/30 01:26:29;;;;;;;0.10;0.10;;;5.60;99.90;;;;;;5110857;28;20038;-88
2022/01/30 01:28:55;;;;;;;0.10;0.10;;;5.40;99.90;;;;;;5094041;28;20481;-89
2022/01/30 01:31:23;;;;;;;0.10;0.10;;;5.40;99.90;;;;;;5094033;28;20477;-88
2022/01/30 01:36:17;;;;;;;0.10;0.10;;;5.50;99.90;;;;;;5110595;28;20568;-88
2022/01/30 01:38:45;;;;;;;0.10;0.10;;;5.50;99.90;;;;;;5110000;28;20128;-83
2022/01/30 01:41:12;;;;;;;0.10;0.10;;;5.60;99.90;;;;;;5111383;28;20613;-89
2022/01/30 01:43:39;;;;;;;0.10;0.10;;;5.60;99.90;;;;;;5094313;28;20131;-88
2022/01/30 01:46:14;;;;;;;0.10;0.10;;;5.60;99.90;;;;;;5094195;28;20071;-88
2022/01/30 01:48:42;;;;;;;0.10;0.10;;;5.70;99.90;;;;;;5113205;28;20094;-88
2022/01/30 01:51:18;;;;;;;0.10;0.10;;;5.70;99.90;;;;;;5093058;28;20286;-83
2022/01/30 01:53:47;;;;;;;0.10;0.10;;;5.70;99.90;;;;;;5110135;28;20076;-87
2022/01/30 01:56:16;;;;;;;0.10;0.10;;;5.60;99.90;;;;;;5111094;28;20044;-89
2022/01/30 01:58:44;;;;;;;0.10;0.10;;;5.50;99.90;;;;;;5111150;28;20036;-89
2022/01/30 02:01:11;;;;;;;0.10;0.10;;;6.00;99.90;;;;;;5110332;28;20029;-89
2022/01/30 02:03:39;;;;;;;0.10;0.10;;;5.40;99.90;;;;;;5111230;28;20123;-89
2022/01/30 02:06:11;;;;;;;0.10;0.10;;;5.50;99.90;;;;;;5094391;28;20521;-82
2022/01/30 02:11:10;;;;;;;0.10;0.10;;;5.30;99.90;;;;;;5126887;28;20044;-83
2022/01/30 02:27:47;;;;;;;0.10;0.10;;;5.30;99.90;;;;;;5115468;28;20075;-83
2022/01/30 02:30:18;;;;;;;0.10;0.10;;;5.30;99.90;;;;;;5096509;28;20044;-83
2022/01/30 02:32:47;;;;;;;0.10;0.10;;;5.20;99.90;;;;;;5097691;28;20040;-83
2022/01/30 02:35:14;;;;;;;0.10;0.10;;;5.20;99.90;;;;;;5112938;28;20047;-83
2022/01/30 02:37:41;;;;;;;0.10;0.10;;;5.30;99.90;;;;;;5080326;28;20400;-88
2022/01/30 02:40:11;;;;;;;0.10;0.10;;;5.30;99.90;;;;;;5080082;28;20074;-88
2022/01/30 02:42:43;;;;;;;0.10;0.10;;;4.90;99.90;;;;;;5115286;28;20040;-88
2022/01/30 02:45:13;;;;;;;0.52;0.52;;;5.30;99.90;;;;;;5115023;28;20051;-88
2022/01/30 02:47:53;;;;;;;0.10;0.10;;;5.50;99.90;;;;;;5097547;28;20134;-88
2022/01/30 02:50:33;;;;;;;0.10;0.10;;;5.40;99.90;;;;;;5098817;28;20126;-88
2022/01/30 02:53:03;;;;;;;0.20;0.20;;;5.50;99.90;;;;;;5113652;28;20476;-89
2022/01/30 02:55:30;;;;;;;0.10;0.10;;;5.50;99.90;;;;;;5081731;28;20036;-88
2022/01/30 02:57:57;;;;;;;0.10;0.10;;;5.50;99.90;;;;;;5113402;28;20051;-88
2022/01/30 03:00:24;;;;;;;0.10;0.10;;;5.60;99.90;;;;;;5097124;28;20040;-83
2022/01/30 03:02:51;;;;;;;0.10;0.10;;;5.60;99.90;;;;;;5097178;28;20032;-89
2022/01/30 03:05:17;;;;;;;0.10;0.10;;;5.50;99.90;;;;;;5096200;28;20047;-83
2022/01/30 03:07:44;;;;;;;0.10;0.10;;;5.60;99.90;;;;;;5079941;28;20039;-83
2022/01/30 03:10:11;;;;;;;0.10;0.10;;;5.60;99.90;;;;;;5079713;28;20127;-83
2022/01/30 03:12:38;;;;;;;0.10;0.10;;;5.50;99.90;;;;;;5079909;28;20051;-87
2022/01/30 03:15:05;;;;;;;0.10;0.10;;;6.00;99.90;;;;;;5112800;28;20040;-83
2022/01/30 03:17:32;;;;;;;0.10;0.10;;;5.60;99.90;;;;;;5096908;28;20044;-88
2022/01/30 03:19:59;;;;;;;0.10;0.10;;;5.60;99.90;;;;;;5113070;28;20032;-83
2022/01/30 03:22:27;;;;;;;0.10;0.10;;;5.60;99.90;;;;;;5113308;28;20036;-88
2022/01/30 03:24:54;;;;;;;0.10;0.10;;;6.60;99.90;;;;;;5095631;28;20127;-83
2022/01/30 03:27:20;;;;;;;0.10;0.10;;;5.70;99.90;;;;;;5078770;28;20126;-82
2022/01/30 03:30:01;;;;;;;0.10;0.10;;;5.70;99.90;;;;;;5079705;28;20053;-83
2022/01/30 03:32:28;;;;;;;0.10;0.10;;;5.70;99.90;;;;;;5083437;28;20059;-83
2022/01/30 03:34:55;;;;;;;0.10;0.10;;;5.70;99.90;;;;;;5112132;28;20044;-88
2022/01/30 03:37:21;;;;;;;0.00;0.00;;;5.80;99.90;;;;;;5079313;28;20047;-88
2022/01/30 03:39:48;;;;;;;0.10;0.10;;;5.80;99.90;;;;;;5080846;28;20047;-83
2022/01/30 03:42:15;;;;;;;0.10;0.10;;;5.80;99.90;;;;;;5095998;28;20414;-87
2022/01/30 03:44:42;;;;;;;0.10;0.10;;;5.70;99.90;;;;;;5079066;28;20040;-88
2022/01/30 03:47:08;;;;;;;0.10;0.10;;;5.80;99.90;;;;;;5095703;28;20056;-88
2022/01/30 03:49:35;;;;;;;0.10;0.10;;;5.80;99.90;;;;;;5078955;28;20134;-88
2022/01/30 03:52:02;;;;;;;0.10;0.10;;;5.80;99.90;;;;;;5112230;28;20090;-83
2022/01/30 03:54:30;;;;;;;0.10;0.10;;;5.80;99.90;;;;;;5078980;28;20043;-83
2022/01/30 03:56:56;;;;;;;0.10;0.10;;;6.30;99.90;;;;;;5095412;28;20051;-88
2022/01/30 03:59:23;;;;;;;0.10;0.10;;;5.90;99.90;;;;;;5078567;28;20432;-88
2022/01/30 04:01:50;;;;;;;0.10;0.10;;;5.90;99.90;;;;;;5096534;28;20507;-89
2022/01/30 04:04:16;;;;;;;0.10;0.10;;;5.90;99.90;;;;;;5078537;28;20047;-87
2022/01/30 04:06:44;;;;;;;0.13;0.13;;;5.90;99.90;;;;;;5079482;28;20083;-88
2022/01/30 04:09:11;;;;;;;0.10;0.10;;;5.90;99.90;;;;;;5111922;28;20688;-83
2022/01/30 04:11:37;;;;;;;0.10;0.10;;;5.90;99.90;;;;;;5112633;28;20050;-88
2022/01/30 04:14:05;;;;;;;0.10;0.10;;;5.90;99.90;;;;;;5096105;28;20047;-88
2022/01/30 04:16:31;;;;;;;0.13;0.13;;;5.90;99.90;;;;;;5095652;28;20126;-83
2022/01/30 04:18:58;;;;;;;0.10;0.10;;;5.90;99.90;;;;;;5111939;28;20127;-83
2022/01/30 04:21:25;;;;;;;0.10;0.10;;;5.90;99.90;;;;;;5078452;28;20050;-83
2022/01/30 04:23:52;;;;;;;0.10;0.10;;;6.00;99.90;;;;;;5078534;28;20405;-83
2022/01/30 04:26:19;;;;;;;0.10;0.10;;;6.00;99.90;;;;;;5077708;28;20036;-83
2022/01/30 04:28:46;;;;;;;0.10;0.10;;;6.70;99.90;;;;;;5086947;28;20042;-88
2022/01/30 04:31:13;;;;;;;0.10;0.10;;;6.00;99.90;;;;;;5095280;28;20127;-88
2022/01/30 04:33:40;;;;;;;0.10;0.10;;;6.10;99.90;;;;;;5112845;28;20099;-89
2022/01/30 04:36:11;;;;;;;0.20;0.20;;;6.10;99.90;;;;;;5094000;28;20420;-88
2022/01/30 04:38:55;;;;;;;0.10;0.10;;;6.10;99.90;;;;;;5111921;28;20101;-89
2022/01/30 04:52:53;;;;;;;0.10;0.10;;;6.00;99.90;;;;;;5128536;28;20126;-83
2022/01/30 04:57:52;;;;;;;0.10;0.10;;;5.80;99.90;;;;;;5112637;28;20048;-88
2022/01/30 05:00:28;;;;;;;0.10;0.10;;;5.70;99.90;;;;;;5095398;28;20032;-83
2022/01/30 05:08:07;;;;;;;0.10;0.10;;;5.70;99.90;;;;;;5128394;28;20079;-87
2022/01/30 05:10:33;;;;;;;0.10;0.10;;;5.60;99.90;;;;;;5078706;28;20052;-83
2022/01/30 05:13:03;;;;;;;0.10;0.10;;;5.70;99.90;;;;;;5094714;28;20056;-83
2022/01/30 05:15:31;;;;;;;0.10;0.10;;;5.60;99.90;;;;;;5093195;28;20412;-88
2022/01/30 05:17:58;;;;;;;0.10;0.10;;;5.70;99.90;;;;;;5094101;28;20123;-87
2022/01/30 05:20:25;;;;;;;0.10;0.10;;;5.60;99.90;;;;;;5110379;28;20493;-83
2022/01/30 05:22:52;;;;;;;0.10;0.10;;;5.60;99.90;;;;;;5094070;28;20119;-83
2022/01/30 05:25:19;;;;;;;0.20;0.20;;;5.60;99.90;;;;;;5076718;28;20093;-88
2022/01/30 05:27:46;;;;;;;0.10;0.10;;;5.60;99.90;;;;;;5094074;28;20047;-82
2022/01/30 05:30:13;;;;;;;0.10;0.10;;;5.60;99.90;;;;;;5110335;28;20097;-83
2022/01/30 05:32:41;;;;;;;0.10;0.10;;;5.60;99.90;;;;;;5127075;28;20040;-88
2022/01/30 05:35:08;;;;;;;0.10;0.10;;;5.70;99.90;;;;;;5110542;28;20040;-88
2022/01/30 05:37:37;;;;;;;0.10;0.10;;;5.70;99.90;;;;;;5094253;28;20036;-88
2022/01/30 05:40:05;;;;;;;0.20;0.20;;;5.70;99.90;;;;;;5099258;28;20115;-83
2022/01/30 05:42:32;;;;;;;0.10;0.10;;;5.70;99.90;;;;;;5109602;28;20032;-88
2022/01/30 05:45:29;;;;;;;1.27;1.17;;;5.60;99.90;;;;;;5110122;28;20043;-83
2022/01/30 05:47:59;;;;;;;0.10;0.10;;;5.60;99.90;;;;;;5099089;28;20056;-83
2022/01/30 05:50:26;;;;;;;0.10;0.10;;;5.50;99.90;;;;;;5128420;28;20052;-88
2022/01/30 05:52:53;;;;;;;0.10;0.10;;;5.40;99.90;;;;;;5093574;28;20036;-88
2022/01/30 05:55:20;;;;;;;0.10;0.10;;;5.40;99.90;;;;;;5109858;28;20494;-89
2022/01/30 05:57:47;;;;;;;0.10;0.10;;;5.30;99.90;;;;;;5113136;28;20048;-82
2022/01/30 06:00:15;;;;;;;0.10;0.10;;;5.20;99.90;;;;;;5097083;28;20032;-82
2022/01/30 06:02:43;;;;;;;0.10;0.10;;;5.20;99.90;;;;;;5080890;28;20040;-83
2022/01/30 06:05:10;;;;;;;0.10;0.10;;;5.10;99.90;;;;;;5113928;28;20067;-82
2022/01/30 06:07:46;;;;;;;0.10;0.10;;;5.10;99.90;;;;;;5113793;28;20050;-88
2022/01/30 06:10:13;;;;;;;0.10;0.10;;;5.00;99.90;;;;;;5098997;28;20135;-83
2022/01/30 06:12:40;;;;;;;0.10;0.10;;;5.00;99.90;;;;;;5096636;28;20569;-88
2022/01/30 06:15:08;;;;;;;0.10;0.10;;;5.00;99.90;;;;;;5096924;28;20107;-88
2022/01/30 06:17:35;;;;;;;0.10;0.10;;;5.00;99.90;;;;;;5097222;28;20382;-88
2022/01/30 06:20:02;;;;;;;0.10;0.10;;;5.40;99.90;;;;;;5081093;28;20047;-88
2022/01/30 06:22:29;;;;;;;0.10;0.10;;;4.80;99.90;;;;;;5096469;28;20395;-82
2022/01/30 06:24:55;;;;;;;0.10;0.10;;;5.00;99.90;;;;;;5080506;28;20100;-83
2022/01/30 06:27:22;;;;;;;0.10;0.10;;;4.70;99.90;;;;;;5080631;28;20040;-83
2022/01/30 06:29:49;;;;;;;0.20;0.20;;;4.90;99.90;;;;;;5098447;28;20089;-89
2022/01/30 06:32:16;;;;;;;0.10;0.10;;;4.70;99.90;;;;;;5080639;28;20086;-82
2022/01/30 06:34:43;;;;;;;0.10;0.10;;;4.70;99.90;;;;;;5099514;28;20051;-82
2022/01/30 06:37:10;;;;;;;0.10;0.10;;;4.80;99.90;;;;;;5113323;28;20086;-83
2022/01/30 06:39:36;;;;;;;0.10;0.10;;;4.80;99.90;;;;;;5096317;28;20044;-83
2022/01/30 06:42:04;;;;;;;0.10;0.10;;;4.90;99.90;;;;;;5096622;28;20527;-82
2022/01/30 06:44:30;;;;;;;0.10;0.10;;;4.80;99.90;;;;;;5096324;28;20386;-83
2022/01/30 06:46:57;;;;;;;0.10;0.10;;;4.80;99.90;;;;;;5096368;28;20046;-82
2022/01/30 06:49:24;;;;;;;0.10;0.10;;;5.00;99.90;;;;;;5113023;28;20116;-87
2022/01/30 06:51:51;;;;;;;0.10;0.10;;;4.70;99.90;;;;;;5096640;28;20044;-83
2022/01/30 06:54:17;;;;;;;0.10;0.10;;;4.70;99.90;;;;;;5130065;28;20089;-82
2022/01/30 06:56:44;;;;;;;0.10;0.10;;;4.70;99.90;;;;;;5096047;28;20543;-83
2022/01/30 06:59:11;;;;;;;0.10;0.10;;;4.70;99.90;;;;;;5096329;28;20036;-88
2022/01/30 07:01:37;;;;;;;0.13;0.13;;;4.80;99.90;;;;;;5096017;28;20040;-88
2022/01/30 07:04:04;;;;;;;0.10;0.10;;;4.80;99.90;;;;;;5096054;28;20040;-82
2022/01/30 07:06:31;;;;;;;0.40;0.40;;;4.90;99.90;;;;;;5095974;28;20042;-83
2022/01/30 07:08:57;;;;;;;0.10;0.10;;;5.00;99.90;;;;;;5095869;28;20038;-88
2022/01/30 07:11:24;;;;;;;0.10;0.10;;;5.00;99.90;;;;;;5095925;28;20036;-87
2022/01/30 07:13:51;;;;;;;0.20;0.20;;;5.00;99.90;;;;;;5095669;28;20109;-82
2022/01/30 07:16:17;;;;;;;0.25;0.25;;;5.00;99.90;;;;;;5111785;28;20407;-88
2022/01/30 07:18:44;;;;;;;0.10;0.10;;;5.00;99.90;;;;;;5112587;28;20054;-88
2022/01/30 07:21:11;;;;;;;0.50;0.50;;;4.90;99.90;;;;;;5096270;28;20040;-89
2022/01/30 07:23:38;;;;;;;0.10;0.10;;;5.00;99.90;;;;;;5112751;28;20123;-88
2022/01/30 07:26:05;;;;;;;0.10;0.10;;;5.00;99.90;;;;;;5117037;28;20040;-82
2022/01/30 07:28:32;;;;;;;0.20;0.20;;;5.10;99.90;;;;;;5113213;28;20173;-82
2022/01/30 07:30:58;;;;;;;0.10;0.10;;;5.10;99.90;;;;;;5090216;28;20067;-87
2022/01/30 07:33:26;;;;;;;0.10;0.10;;;5.20;99.90;;;;;;5103065;28;20048;-82
2022/01/30 07:35:55;;;;;;;0.10;0.10;;;5.20;99.90;;;;;;5123191;28;20043;-82
2022/01/30 07:38:22;;;;;;;0.10;0.10;;;5.20;99.90;;;;;;5129908;28;20047;-83
2022/01/30 07:40:50;;;;;;;0.10;0.10;;;5.20;99.90;;;;;;5132511;28;20032;-88
2022/01/30 07:43:17;;;;;;;0.10;0.10;;;5.20;99.90;;;;;;5115260;28;20514;-83
2022/01/30 07:45:43;;;;;;;0.10;0.10;;;5.70;99.90;;;;;;5094785;28;20036;-82
2022/01/30 07:48:10;;;;;;;0.10;0.10;;;5.20;99.90;;;;;;5103208;28;20052;-88
2022/01/30 07:50:37;;;;;;;0.10;0.10;;;5.20;99.90;;;;;;5094951;28;20508;-88
2022/01/30 07:53:04;;;;;;;0.10;0.10;;;5.20;99.90;;;;;;5095089;28;20044;-82
2022/01/30 07:55:30;;;;;;;0.10;0.10;;;5.80;99.90;;;;;;5095233;28;20040;-87
2022/01/30 07:57:57;;;;;;;0.10;0.10;;;5.20;99.90;;;;;;5079355;28;20036;-82
2022/01/30 08:00:24;;;;;;;0.10;0.10;;;5.30;99.90;;;;;;5128582;28;20492;-88
2022/01/30 08:02:51;;;;;;;0.10;0.10;;;5.20;99.90;;;;;;5115490;28;20582;-82
2022/01/30 08:05:17;;;;;;;0.10;0.10;;;5.50;99.90;;;;;;5118391;28;20058;-88
2022/01/30 08:07:44;;;;;;;0.10;0.10;;;5.30;99.90;;;;;;5109870;28;20373;-88
2022/01/30 08:10:11;;;;;;;0.10;0.10;;;5.30;99.90;;;;;;5114145;28;20573;-88
2022/01/30 08:12:38;;;;;;;0.10;0.10;;;5.30;99.90;;;;;;5078046;28;20178;-89
2022/01/30 08:15:05;;;;;;;0.10;0.10;;;5.80;99.90;;;;;;5095797;28;20093;-89
2022/01/30 08:17:33;;;;;;;0.10;0.10;;;5.30;99.90;;;;;;5078878;28;20126;-87
2022/01/30 08:20:00;;;;;;;0.10;0.10;;;5.40;99.90;;;;;;5077723;28;20489;-88
2022/01/30 08:22:29;;;;;;;0.10;0.10;;;5.40;99.90;;;;;;5079002;28;20047;-87
2022/01/30 08:24:56;;;;;;;0.10;0.10;;;5.50;99.90;;;;;;5094796;28;20128;-84
2022/01/30 08:27:23;;;;;;;0.10;0.10;;;5.80;99.90;;;;;;5094548;28;20170;-88
2022/01/30 08:29:50;;;;;;;0.10;0.10;;;5.60;99.90;;;;;;5110835;28;20079;-82
2022/01/30 08:32:16;;;;;;;0.10;0.10;;;5.60;99.90;;;;;;5111193;28;20044;-82
2022/01/30 08:34:43;;;;;;;0.10;0.10;;;5.90;99.90;;;;;;5095171;28;20040;-88
2022/01/30 08:37:10;;;;;;;0.10;0.10;;;5.70;99.90;;;;;;5078404;28;20040;-82
2022/01/30 08:39:37;;;;;;;0.20;0.20;;;5.90;99.90;;;;;;5077946;28;20043;-82
2022/01/30 08:42:04;;;;;;;0.10;0.10;;;5.60;99.90;;;;;;5111323;28;20454;-88
2022/01/30 08:44:31;;;;;;;0.10;0.10;;;5.60;99.90;;;;;;5095111;28;20044;-84
2022/01/30 08:46:58;;;;;;;0.10;0.10;;;5.60;99.90;;;;;;5094230;28;20404;-82
2022/01/30 08:49:24;;;;;;;0.10;0.10;;;5.50;99.90;;;;;;5077035;28;20052;-90
2022/01/30 08:51:51;;;;;;;0.10;0.10;;;5.60;99.90;;;;;;5093914;28;20496;-84
2022/01/30 08:54:18;;;;;;;0.10;0.10;;;5.50;99.90;;;;;;5094527;28;20400;-84
2022/01/30 08:56:44;;;;;;;0.10;0.10;;;5.50;99.90;;;;;;5094455;28;20032;-84
2022/01/30 08:59:12;;;;;;;0.10;0.10;;;5.50;99.90;;;;;;5093622;28;20089;-90
2022/01/30 09:01:40;;;;;;;0.10;0.10;;;5.40;99.90;;;;;;5093902;28;20035;-85
2022/01/30 09:04:07;;;;;;;0.10;0.10;;;5.50;99.90;;;;;;5111044;28;20048;-84
2022/01/30 09:06:36;;;;;;;0.10;0.10;;;5.50;99.90;;;;;;5094164;28;20065;-90
2022/01/30 09:09:03;;;;;;;0.10;0.10;;;5.50;99.90;;;;;;5110903;28;20122;-89
2022/01/30 09:11:30;;;;;;;0.10;0.10;;;5.50;99.90;;;;;;5094369;28;20115;-84
2022/01/30 09:13:57;;;;;;;0.10;0.10;;;5.70;99.90;;;;;;5091422;28;20377;-90
2022/01/30 09:16:24;;;;;;;0.10;0.10;;;5.60;99.90;;;;;;5111159;28;20050;-83
2022/01/30 09:18:51;;;;;;;0.10;0.10;;;5.60;99.90;;;;;;5127693;28;20476;-90
2022/01/30 09:21:17;;;;;;;0.10;0.10;;;5.70;99.90;;;;;;5109078;28;20035;-85
2022/01/30 09:23:44;;;;;;;0.10;0.10;;;5.70;99.90;;;;;;5094350;28;20028;-84
2022/01/30 09:26:11;;;;;;;0.10;0.10;;;5.80;99.90;;;;;;5109781;28;20435;-85
2022/01/30 09:28:39;;;;;;;0.10;0.10;;;5.80;99.90;;;;;;5105673;28;20423;-85
2022/01/30 09:31:06;;;;;;;0.20;0.20;;;5.80;99.90;;;;;;5095710;28;20824;-88
2022/01/30 09:33:33;;;;;;;0.10;0.10;;;5.90;99.90;;;;;;5129969;28;20114;-91
2022/01/30 09:35:59;;;;;;;0.10;0.10;;;6.00;99.90;;;;;;5111586;28;20036;-91
2022/01/30 09:38:26;;;;;;;0.10;0.10;;;6.00;99.90;;;;;;5129540;28;20044;-90
2022/01/30 09:40:55;;;;;;;0.10;0.10;;;6.10;99.90;;;;;;5080531;28;20040;-84
2022/01/30 09:43:23;;;;;;;0.10;0.10;;;6.20;99.90;;;;;;5139961;28;20040;-90
2022/01/30 09:45:51;;;;;;;0.10;0.10;;;6.20;99.90;;;;;;5107008;28;20118;-91
2022/01/30 09:48:18;;;;;;;0.10;0.10;;;6.60;99.90;;;;;;5113123;28;20051;-84
2022/01/30 09:50:46;;;;;;;0.10;0.10;;;6.20;99.90;;;;;;5111491;28;20051;-90
2022/01/30 09:53:13;;;;;;;0.10;0.10;;;6.20;99.90;;;;;;5130192;28;20039;-84
2022/01/30 09:55:40;;;;;;;0.10;0.10;;;6.10;99.90;;;;;;5113774;28;20047;-85
2022/01/30 09:58:07;;;;;;;0.10;0.10;;;6.20;99.90;;;;;;5130012;28;20096;-91
2022/01/30 10:00:35;;;;;;;0.10;0.10;;;6.30;99.90;;;;;;5113816;28;20048;-91
2022/01/30 10:03:03;;;;;;;0.10;0.10;;;6.30;99.90;;;;;;5129737;28;20078;-90
2022/01/30 10:05:34;;;;;;;0.10;0.10;;;6.40;99.90;;;;;;5113731;28;20036;-90
2022/01/30 10:08:02;;;;;;;0.10;0.10;;;6.30;99.90;;;;;;5113070;28;20661;-85
2022/01/30 10:10:29;;;;;;;0.10;0.10;;;6.30;99.90;;;;;;5130398;28;20139;-91
2022/01/30 10:13:11;;;;;;;0.10;0.10;;;6.30;99.90;;;;;;5129028;28;20032;-85
2022/01/30 10:15:50;;;;;;;0.10;0.10;;;6.40;99.90;;;;;;5118159;28;20040;-85
2022/01/30 10:18:18;;;;;;;0.10;0.10;;;6.40;99.90;;;;;;5129182;28;20508;-91
2022/01/30 10:20:45;;;;;;;0.10;0.10;;;6.40;99.90;;;;;;5113105;28;20110;-84
2022/01/30 10:23:12;;;;;;;0.10;0.10;;;6.40;99.90;;;;;;5112945;28;20114;-84
2022/01/30 10:25:53;;;;;;;0.10;0.10;;;6.40;99.90;;;;;;5127460;28;20046;-90
2022/01/30 10:28:31;;;;;;;0.10;0.10;;;6.40;99.90;;;;;;5129428;28;20046;-90
2022/01/30 10:31:02;;;;;;;0.10;0.10;;;5.90;99.90;;;;;;5121513;28;20038;-91
2022/01/30 10:33:45;;;;;;;0.10;0.10;;;6.50;99.90;;;;;;5119282;28;20126;-85
2022/01/30 10:36:33;;;;;;;0.10;0.10;;;6.40;99.90;;;;;;5109259;28;20066;-91
2022/01/30 10:39:18;;;;;;;0.00;0.00;;;6.50;99.90;;;;;;5125858;28;20044;-86
2022/01/30 10:41:52;;;;;;;0.10;0.10;;;6.50;99.90;;;;;;5130225;28;20599;-86
2022/01/30 10:44:19;;;;;;;0.10;0.10;;;6.60;99.90;;;;;;5101411;28;20035;-90
2022/01/30 10:46:53;;;;;;;0.10;0.10;;;6.70;99.90;;;;;;5091322;28;20093;-85
2022/01/30 10:49:22;;;;;;;0.10;0.10;;;6.80;99.90;;;;;;5123867;28;20055;-90
2022/01/30 10:51:54;;;;;;;0.10;0.10;;;6.70;99.90;;;;;;5106991;28;20118;-89
2022/01/30 10:54:25;;;;;;;0.10;0.10;;;6.70;99.90;;;;;;5132663;28;20043;-91
2022/01/30 10:57:02;;;;;;;0.10;0.10;;;6.80;99.90;;;;;;5117245;28;20051;-84
2022/01/30 10:59:29;;;;;;;0.10;0.10;;;6.70;99.90;;;;;;5140587;28;20035;-84
2022/01/30 11:02:11;;;;;;;0.10;0.10;;;6.60;99.90;;;;;;5116377;28;20039;-91
2022/01/30 11:04:38;;;;;;;4.47;0.45;;;6.70;99.90;;;;;;5132404;28;20066;-83
2022/01/30 11:07:05;;;;;;;0.20;0.20;;;6.60;99.90;;;;;;5098864;28;20523;-84
2022/01/30 11:12:03;;;;;;;0.10;0.10;;;6.60;99.90;;;;;;5116146;28;20043;-85
2022/01/30 11:17:28;;;;;;;0.10;0.10;;;6.70;99.90;;;;;;5131298;28;20047;-82
2022/01/30 11:19:57;;;;;;;0.10;0.10;;;6.90;99.90;;;;;;5094913;28;20032;-82
2022/01/30 11:22:29;;;;;;;0.00;0.00;;;6.70;99.90;;;;;;5111090;28;20453;-90
2022/01/30 11:25:08;;;;;;;0.10;0.10;;;6.70;99.90;;;;;;5142050;28;20043;-90
2022/01/30 11:27:35;;;;;;;0.10;0.10;;;6.80;99.90;;;;;;5150140;28;20035;-84
2022/01/30 11:30:04;;;;;;;0.10;0.10;;;6.80;99.90;;;;;;5133283;28;20127;-83
2022/01/30 11:32:30;;;;;;;0.10;0.10;;;6.80;99.90;;;;;;5116477;28;20054;-90
2022/01/30 11:34:57;;;;;;;0.10;0.10;;;6.80;99.90;;;;;;5093646;28;20520;-90
2022/01/30 11:37:28;;;;;;;0.00;0.00;;;6.80;99.90;;;;;;5111523;28;20036;-84
2022/01/30 11:39:56;;;;;;;0.10;0.10;;;6.80;99.90;;;;;;5110014;28;20036;-90
2022/01/30 11:42:35;;;;;;;0.10;0.10;;;6.90;99.90;;;;;;5112585;28;20071;-84
2022/01/30 11:45:08;;;;;;;0.10;0.10;;;6.90;99.90;;;;;;5111952;28;20039;-84
2022/01/30 11:47:51;;;;;;;0.10;0.10;;;6.90;99.90;;;;;;5128532;28;20080;-84
2022/01/30 11:50:31;;;;;;;0.10;0.10;;;6.90;99.90;;;;;;5111203;28;20091;-90
2022/01/30 11:53:24;;;;;;;0.10;0.10;;;6.80;99.90;;;;;;5121652;28;20056;-84
2022/01/30 11:55:56;;;;;;;0.10;0.10;;;6.80;99.90;;;;;;5129994;28;20039;-85
2022/01/30 11:58:29;;;;;;;0.10;0.10;;;6.70;99.90;;;;;;5131865;28;20720;-90
2022/01/30 12:01:11;;;;;;;0.10;0.10;;;6.70;99.90;;;;;;5131336;28;20035;-84
2022/01/30 12:03:51;;;;;;;0.10;0.10;;;6.60;99.90;;;;;;5130868;28;20040;-91
2022/01/30 12:06:21;;;;;;;0.10;0.10;;;6.60;99.90;;;;;;5131786;28;20105;-90
2022/01/30 12:08:50;;;;;;;0.10;0.10;;;6.70;99.90;;;;;;5132006;28;20120;-90
2022/01/30 12:11:49;;;;;;;0.10;0.10;;;6.80;99.90;;;;;;5131371;28;20131;-84
2022/01/30 12:14:22;;;;;;;0.10;0.10;;;7.40;99.90;;;;;;5130899;28;20042;-84
2022/01/30 12:16:56;;;;;;;0.10;0.10;;;7.00;99.90;;;;;;5131093;28;20043;-90
2022/01/30 12:19:47;;;;;;;0.10;0.10;;;7.00;99.90;;;;;;5131573;28;20031;-82
2022/01/30 12:22:17;;;;;;;0.10;0.10;;;7.00;99.90;;;;;;5132205;28;20032;-88
2022/01/30 12:24:46;;;;;;;0.10;0.10;;;7.00;99.90;;;;;;5131367;28;20492;-88
2022/01/30 12:27:13;;;;;;;0.10;0.10;;;7.00;99.90;;;;;;5130813;28;20469;-88
2022/01/30 12:29:41;;;;;;;0.10;0.10;;;6.90;99.90;;;;;;5097592;28;20051;-81
2022/01/30 12:32:34;;;;;;;0.10;0.10;;;7.30;99.90;;;;;;5115011;28;20401;-87
2022/01/30 12:35:03;;;;;;;0.10;0.10;;;6.80;99.90;;;;;;5128210;28;20039;-86
2022/01/30 12:37:35;;;;;;;0.10;0.10;;;6.80;99.90;;;;;;5114361;28;20035;-84
2022/01/30 12:40:16;;;;;;;0.10;0.10;;;6.70;99.90;;;;;;5130766;28;20039;-90
2022/01/30 12:42:44;;;;;;;0.10;0.10;;;6.80;99.90;;;;;;5131174;28;20067;-84
2022/01/30 12:45:13;;;;;;;0.10;0.10;;;6.70;99.90;;;;;;5130862;28;20134;-85
2022/01/30 12:47:58;;;;;;;0.10;0.10;;;6.70;99.90;;;;;;5114109;28;20039;-90
2022/01/30 12:50:31;;;;;;;0.10;0.10;;;6.70;99.90;;;;;;5110716;28;20056;-82
2022/01/30 12:53:00;;;;;;;0.10;0.10;;;6.70;99.90;;;;;;5110649;28;20130;-81
2022/01/30 12:55:27;;;;;;;0.10;0.10;;;6.70;99.90;;;;;;5111664;28;20397;-87
2022/01/30 12:57:54;;;;;;;0.10;0.10;;;6.80;99.90;;;;;;5114276;28;20039;-82
2022/01/30 13:00:22;;;;;;;0.08;0.08;;;6.80;99.90;;;;;;5140391;28;20046;-82
2022/01/30 13:03:00;;;;;;;0.10;0.10;;;6.90;99.90;;;;;;5110831;28;20039;-88
2022/01/30 13:05:30;;;;;;;0.10;0.10;;;6.90;99.90;;;;;;5127237;28;20048;-84
2022/01/30 13:07:58;;;;;;;0.10;0.10;;;6.90;99.90;;;;;;5118070;28;20039;-84
2022/01/30 13:10:27;;;;;;;0.10;0.10;;;6.90;99.90;;;;;;5102339;28;20093;-83
2022/01/30 13:12:58;;;;;;;0.10;0.10;;;7.10;99.90;;;;;;5122878;28;20039;-83
2022/01/30 13:15:25;;;;;;;0.10;0.10;;;6.90;99.90;;;;;;5106831;28;20484;-89
2022/01/30 13:17:52;;;;;;;0.10;0.10;;;6.80;99.90;;;;;;5105515;28;20040;-89
2022/01/30 13:20:24;;;;;;;0.10;0.10;;;7.70;99.90;;;;;;5101699;28;20043;-89
2022/01/30 13:22:52;;;;;;;0.10;0.10;;;6.60;99.90;;;;;;5125136;28;20039;-83
2022/01/30 13:25:20;;;;;;;0.10;0.10;;;6.60;99.90;;;;;;5094810;28;20526;-88
2022/01/30 13:27:49;;;;;;;0.20;0.20;;;6.60;99.90;;;;;;5129352;28;20043;-83
2022/01/30 13:30:24;;;;;;;0.10;0.10;;;6.60;99.90;;;;;;5124615;28;20041;-83
2022/01/30 13:32:52;;;;;;;0.10;0.10;;;6.60;99.90;;;;;;5114635;28;20047;-89
2022/01/30 13:35:22;;;;;;;0.00;0.00;;;6.60;99.90;;;;;;5124645;28;20097;-89
2022/01/30 13:37:49;;;;;;;0.10;0.10;;;6.60;99.90;;;;;;5116672;28;20120;-88
2022/01/30 13:40:21;;;;;;;0.10;0.10;;;6.50;99.90;;;;;;5122630;28;20035;-89
2022/01/30 13:42:55;;;;;;;0.10;0.10;;;6.50;99.90;;;;;;5124175;28;20039;-89
2022/01/30 13:48:01;;;;;;;0.55;0.55;;;6.40;99.90;;;;;;5127067;28;20040;-83
2022/01/30 13:50:34;;;;;;;0.10;0.10;;;6.40;99.90;;;;;;5126182;28;20180;-83
2022/01/30 13:53:24;;;;;;;0.10;0.10;;;6.30;99.90;;;;;;5121596;28;20047;-89
2022/01/30 13:55:54;;;;;;;0.10;0.10;;;6.30;99.90;;;;;;5108804;28;20041;-89
2022/01/30 13:58:22;;;;;;;0.10;0.10;;;6.30;99.90;;;;;;5126855;28;20048;-81
2022/01/30 14:00:49;;;;;;;0.05;0.05;;;6.30;99.90;;;;;;5118151;28;20069;-88
2022/01/30 14:03:27;;;;;;;0.10;0.10;;;6.70;99.90;;;;;;5140628;28;20028;-83
2022/01/30 14:05:54;;;;;;;0.10;0.10;;;6.40;99.90;;;;;;5110246;28;20036;-83
2022/01/30 14:08:25;;;;;;;0.10;0.10;;;6.40;99.90;;;;;;5092365;28;20044;-89